createdAt,value
2024-01-28T00:01:23.989Z,71.90
2024-01-28T00:04:01.518Z,70.70
2024-01-28T00:06:31.749Z,72.00
2024-01-28T00:09:03.276Z,72.50
2024-01-28T00:11:33.031Z,71.90
2024-01-28T00:14:07.541Z,72.10
2024-01-28T00:16:39.142Z,72.60
2024-01-28T00:19:10.844Z,72.80
2024-01-28T00:21:40.275Z,73.70
2024-01-28T00:24:10.081Z,74.30
2024-01-28T00:26:44.948Z,73.80
2024-01-28T00:29:22.094Z,73.50
2024-01-28T00:31:51.560Z,74.50
2024-01-28T00:34:23.217Z,76.00
2024-01-28T00:36:59.213Z,76.40
2024-01-28T00:39:34.219Z,75.20
2024-01-28T00:42:07.088Z,74.50
2024-01-28T00:44:36.575Z,74.10
2024-01-28T00:47:05.459Z,74.10
2024-01-28T00:49:36.118Z,73.80
2024-01-28T00:52:04.802Z,72.70
2024-01-28T00:54:33.488Z,72.00
2024-01-28T00:57:02.629Z,71.70
2024-01-28T00:59:31.581Z,71.90
2024-01-28T01:01:59.451Z,71.70
2024-01-28T01:04:29.727Z,71.80
2024-01-28T01:07:03.295Z,71.90
2024-01-28T01:09:32.081Z,71.20
2024-01-28T01:12:01.506Z,70.70
2024-01-28T01:14:36.334Z,70.30
2024-01-28T01:17:08.519Z,70.30
2024-01-28T01:19:36.478Z,70.70
2024-01-28T01:22:10.113Z,70.50
2024-01-28T01:24:49.807Z,70.40
2024-01-28T01:27:19.300Z,71.40
2024-01-28T01:29:47.893Z,73.30
2024-01-28T01:32:18.944Z,74.80
2024-01-28T01:34:48.479Z,75.90
2024-01-28T01:37:24.979Z,76.50
2024-01-28T01:39:54.982Z,75.60
2024-01-28T01:42:24.979Z,74.90
2024-01-28T01:44:55.379Z,74.80
2024-01-28T01:47:26.516Z,73.60
2024-01-28T01:49:57.088Z,72.70
2024-01-28T01:52:26.265Z,71.90
2024-01-28T01:54:56.423Z,70.40
2024-01-28T01:57:27.924Z,70.00
2024-01-28T01:59:57.418Z,69.30
2024-01-28T02:02:28.296Z,68.20
2024-01-28T02:04:58.974Z,67.70
2024-01-28T02:07:29.275Z,68.70
2024-01-28T02:10:01.149Z,68.30
2024-01-28T02:12:31.961Z,70.60
2024-01-28T02:15:13.836Z,75.40
2024-01-28T02:17:44.724Z,79.70
2024-01-28T02:20:13.493Z,81.00
2024-01-28T02:22:42.286Z,82.00
2024-01-28T02:25:12.132Z,83.70
2024-01-28T02:27:45.461Z,83.70
2024-01-28T02:30:15.773Z,84.30
2024-01-28T02:32:52.693Z,84.90
2024-01-28T02:35:22.135Z,85.00
2024-01-28T02:37:52.964Z,85.20
2024-01-28T02:40:22.544Z,85.10
2024-01-28T02:42:51.277Z,85.10
2024-01-28T02:45:20.903Z,86.00
2024-01-28T02:47:50.601Z,86.30
2024-01-28T02:50:27.463Z,85.00
2024-01-28T02:52:55.161Z,83.90
2024-01-28T02:55:23.088Z,82.30
2024-01-28T02:57:52.119Z,81.00
2024-01-28T03:00:29.982Z,80.20
2024-01-28T03:03:08.756Z,79.40
2024-01-28T03:05:38.352Z,78.60
2024-01-28T03:08:10.747Z,77.90
2024-01-28T03:10:39.527Z,77.60
2024-01-28T03:13:06.954Z,77.40
2024-01-28T03:15:34.512Z,77.40
2024-01-28T03:18:05.273Z,77.30
2024-01-28T03:20:36.293Z,76.80
2024-01-28T03:23:05.558Z,76.60
2024-01-28T03:25:35.864Z,76.40
2024-01-28T03:28:05.123Z,76.60
2024-01-28T03:30:34.225Z,77.90
2024-01-28T03:33:04.565Z,80.90
2024-01-28T03:35:33.561Z,83.20
2024-01-28T03:38:04.164Z,83.80
2024-01-28T03:40:42.142Z,84.70
2024-01-28T03:43:12.426Z,82.90
2024-01-28T03:45:39.788Z,81.30
2024-01-28T03:48:08.754Z,80.00
2024-01-28T03:50:37.402Z,79.80
2024-01-28T03:53:06.525Z,79.10
2024-01-28T03:55:35.658Z,78.50
2024-01-28T03:58:05.394Z,78.40
2024-01-28T04:00:40.332Z,78.70
2024-01-28T04:03:19.072Z,80.80
2024-01-28T04:05:50.590Z,83.70
2024-01-28T04:08:18.977Z,85.10
2024-01-28T04:10:56.641Z,84.90
2024-01-28T04:13:27.239Z,84.40
2024-01-28T04:16:08.453Z,84.00
2024-01-28T04:18:39.608Z,83.50
2024-01-28T04:21:08.713Z,82.90
2024-01-28T04:23:37.717Z,82.40
2024-01-28T04:26:08.800Z,82.70
2024-01-28T04:28:37.899Z,85.00
2024-01-28T04:31:05.702Z,83.40
2024-01-28T04:33:34.589Z,82.50
2024-01-28T04:36:04.693Z,83.90
2024-01-28T04:38:54.517Z,83.00
2024-01-28T04:41:22.020Z,81.80
2024-01-28T04:43:51.253Z,80.80
2024-01-28T04:46:24.194Z,79.70
2024-01-28T04:48:54.236Z,79.80
2024-01-28T04:51:25.413Z,79.70
2024-01-28T04:53:55.579Z,79.20
2024-01-28T04:56:24.225Z,78.00
2024-01-28T04:58:55.269Z,78.00
2024-01-28T05:01:25.890Z,79.10
2024-01-28T05:03:56.261Z,82.50
2024-01-28T05:06:27.853Z,86.40
2024-01-28T05:08:59.896Z,89.60
2024-01-28T05:11:33.635Z,90.70
2024-01-28T05:14:10.728Z,91.20
2024-01-28T05:16:39.376Z,91.40
2024-01-28T05:19:10.734Z,91.60
2024-01-28T05:21:38.284Z,91.80
2024-01-28T05:24:11.056Z,91.90
2024-01-28T05:26:41.199Z,90.80
2024-01-28T05:29:13.108Z,89.80
2024-01-28T05:31:44.655Z,88.20
2024-01-28T05:34:13.539Z,87.60
2024-01-28T05:36:43.514Z,86.90
2024-01-28T05:39:12.249Z,85.80
2024-01-28T05:41:40.560Z,85.90
2024-01-28T05:44:09.200Z,85.90
2024-01-28T05:46:40.990Z,86.30
2024-01-28T05:49:13.181Z,86.00
2024-01-28T05:51:41.998Z,86.00
2024-01-28T05:54:11.182Z,87.10
2024-01-28T05:56:44.687Z,87.60
2024-01-28T05:59:13.759Z,87.10
2024-01-28T06:01:42.180Z,84.60
2024-01-28T06:04:12.531Z,83.50
2024-01-28T06:06:45.013Z,84.00
2024-01-28T06:09:13.650Z,85.30
2024-01-28T06:11:51.763Z,85.70
2024-01-28T06:14:20.464Z,85.70
2024-01-28T06:16:50.812Z,86.00
2024-01-28T06:19:22.144Z,86.80
2024-01-28T06:21:53.262Z,87.40
2024-01-28T06:24:24.392Z,87.10
2024-01-28T06:26:56.054Z,86.30
2024-01-28T06:29:36.069Z,85.90
2024-01-28T06:32:07.238Z,85.20
2024-01-28T06:34:36.740Z,84.80
2024-01-28T06:37:05.372Z,85.30
2024-01-28T06:39:33.818Z,85.10
2024-01-28T06:42:06.105Z,85.30
2024-01-28T06:44:42.532Z,85.40
2024-01-28T06:47:10.998Z,84.90
2024-01-28T06:49:39.636Z,84.90
2024-01-28T06:52:08.794Z,85.10
2024-01-28T06:54:41.813Z,85.10
2024-01-28T06:57:19.688Z,85.20
2024-01-28T06:59:49.044Z,85.70
2024-01-28T07:02:19.478Z,85.80
2024-01-28T07:04:48.134Z,86.00
2024-01-28T07:07:17.059Z,86.60
2024-01-28T07:09:46.037Z,86.40
2024-01-28T07:12:23.105Z,86.10
2024-01-28T07:14:52.811Z,85.40
2024-01-28T07:17:27.416Z,84.20
2024-01-28T07:19:54.771Z,83.70
2024-01-28T07:22:25.722Z,83.50
2024-01-28T07:24:54.812Z,83.50
2024-01-28T07:27:23.858Z,85.00
2024-01-28T07:29:55.900Z,85.20
2024-01-28T07:32:34.551Z,85.00
2024-01-28T07:35:02.335Z,86.70
2024-01-28T07:37:32.926Z,84.60
2024-01-28T07:40:02.370Z,85.30
2024-01-28T07:42:39.097Z,83.30
2024-01-28T07:45:08.818Z,83.40
2024-01-28T07:47:43.421Z,82.40
2024-01-28T07:50:22.890Z,83.20
2024-01-28T07:52:51.747Z,83.30
2024-01-28T07:55:19.765Z,82.80
2024-01-28T07:57:48.264Z,83.50
2024-01-28T08:00:25.267Z,82.20
2024-01-28T08:02:57.248Z,83.40
2024-01-28T08:05:26.738Z,81.60
2024-01-28T08:07:54.985Z,83.00
2024-01-28T08:10:26.274Z,83.50
2024-01-28T08:12:56.991Z,82.90
2024-01-28T08:15:31.227Z,83.30
2024-01-28T08:18:00.368Z,84.40
2024-01-28T08:20:30.630Z,82.70
2024-01-28T08:23:01.649Z,83.00
2024-01-28T08:25:30.558Z,82.10
2024-01-28T08:28:00.235Z,81.50
2024-01-28T08:30:30.134Z,82.60
2024-01-28T08:33:00.352Z,79.80
2024-01-28T08:35:27.589Z,82.80
2024-01-28T08:38:04.504Z,86.00
2024-01-28T08:40:34.888Z,86.30
2024-01-28T08:43:07.316Z,86.40
2024-01-28T08:45:35.132Z,85.40
2024-01-28T08:48:07.339Z,81.70
2024-01-28T08:50:42.012Z,80.70
2024-01-28T08:53:18.754Z,79.30
2024-01-28T08:55:48.970Z,80.70
2024-01-28T08:58:19.569Z,80.50
2024-01-28T09:00:48.018Z,79.90
2024-01-28T09:03:24.674Z,81.20
2024-01-28T09:08:38.710Z,82.10
2024-01-28T09:11:13.347Z,83.50
2024-01-28T09:13:51.102Z,84.60
2024-01-28T09:16:20.496Z,83.70
2024-01-28T09:18:57.244Z,84.10
2024-01-28T09:21:26.701Z,86.20
2024-01-28T09:23:57.040Z,87.30
2024-01-28T09:26:28.110Z,85.20
2024-01-28T09:28:55.402Z,87.40
2024-01-28T09:31:28.106Z,88.20
2024-01-28T09:33:59.990Z,87.30
2024-01-28T09:36:30.412Z,86.40
2024-01-28T09:39:01.497Z,87.20
2024-01-28T09:41:54.961Z,86.90
2024-01-28T09:44:28.116Z,86.30
2024-01-28T09:47:02.804Z,86.50
2024-01-28T09:49:43.069Z,87.10
2024-01-28T09:52:15.432Z,86.60
2024-01-28T09:54:53.022Z,87.50
2024-01-28T09:57:24.630Z,87.00
2024-01-28T09:59:52.520Z,86.00
2024-01-28T10:02:28.017Z,86.40
2024-01-28T10:05:04.684Z,87.00
2024-01-28T10:07:46.159Z,87.30
2024-01-28T10:10:22.078Z,87.20
2024-01-28T10:12:51.944Z,87.10
2024-01-28T10:15:30.573Z,87.70
2024-01-28T10:18:01.866Z,88.30
2024-01-28T10:20:34.064Z,88.20
2024-01-28T10:23:05.154Z,88.30
2024-01-28T10:25:41.145Z,87.80
2024-01-28T10:28:17.392Z,88.10
2024-01-28T10:30:48.341Z,88.30
2024-01-28T10:33:17.412Z,89.00
2024-01-28T10:35:52.268Z,89.80
2024-01-28T10:38:26.452Z,89.00
2024-01-28T10:40:55.574Z,90.00
2024-01-28T10:43:37.354Z,89.80
2024-01-28T10:46:11.954Z,90.50
2024-01-28T10:48:55.892Z,90.30
2024-01-28T10:51:26.282Z,90.20
2024-01-28T10:53:58.232Z,90.20
2024-01-28T10:56:30.339Z,90.70
2024-01-28T10:59:04.505Z,90.70
2024-01-28T11:01:37.151Z,90.70
2024-01-28T11:04:11.194Z,90.50
2024-01-28T11:06:42.284Z,90.90
2024-01-28T11:09:17.639Z,90.90
2024-01-28T11:11:45.928Z,90.70
2024-01-28T11:14:23.050Z,91.20
2024-01-28T11:16:59.405Z,91.40
2024-01-28T11:19:32.896Z,91.00
2024-01-28T11:22:05.188Z,90.70
2024-01-28T11:24:54.299Z,91.10
2024-01-28T11:27:32.415Z,90.70
2024-01-28T11:30:16.628Z,91.10
2024-01-28T11:32:48.207Z,91.40
2024-01-28T11:35:17.365Z,91.50
2024-01-28T11:37:58.007Z,91.40
2024-01-28T11:40:39.065Z,91.70
2024-01-28T11:43:10.191Z,91.30
2024-01-28T11:45:40.047Z,91.50
2024-01-28T11:48:19.809Z,90.90
2024-01-28T11:50:50.378Z,91.40
2024-01-28T11:53:19.012Z,91.00
2024-01-28T11:55:48.904Z,91.20
2024-01-28T11:58:20.163Z,91.10
2024-01-28T12:00:48.840Z,91.00
2024-01-28T12:03:19.955Z,90.60
2024-01-28T12:08:39.529Z,90.50
2024-01-28T12:11:09.669Z,90.50
2024-01-28T12:13:39.092Z,90.40
2024-01-28T12:16:07.631Z,91.00
2024-01-28T12:18:43.834Z,91.20
2024-01-28T12:21:32.701Z,90.10
2024-01-28T12:24:03.465Z,90.00
2024-01-28T12:26:36.529Z,90.10
2024-01-28T12:29:13.567Z,90.70
2024-01-28T12:31:42.038Z,89.80
2024-01-28T12:34:21.355Z,90.00
2024-01-28T12:36:49.817Z,90.70
2024-01-28T12:39:17.760Z,90.40
2024-01-28T12:41:46.690Z,90.40
2024-01-28T12:44:15.539Z,90.00
2024-01-28T12:46:47.598Z,89.50
2024-01-28T12:49:16.637Z,89.20
2024-01-28T12:51:48.020Z,89.00
2024-01-28T12:54:22.902Z,89.80
2024-01-28T12:56:53.865Z,89.20
2024-01-28T12:59:21.449Z,88.70
2024-01-28T13:01:50.807Z,89.30
2024-01-28T13:04:21.957Z,88.00
2024-01-28T13:06:55.794Z,88.80
2024-01-28T13:09:24.955Z,88.30
2024-01-28T13:11:58.150Z,87.20
2024-01-28T13:14:28.893Z,86.90
2024-01-28T13:16:59.042Z,86.60
2024-01-28T13:19:30.884Z,87.20
2024-01-28T13:22:01.063Z,86.10
2024-01-28T13:24:29.696Z,86.70
2024-01-28T13:26:58.466Z,86.40
2024-01-28T13:29:29.861Z,87.10
2024-01-28T13:31:57.452Z,85.60
2024-01-28T13:34:25.527Z,85.20
2024-01-28T13:36:54.495Z,83.90
2024-01-28T13:39:22.134Z,85.20
2024-01-28T13:41:50.971Z,85.30
2024-01-28T13:44:20.101Z,84.60
2024-01-28T13:46:49.447Z,85.40
2024-01-28T13:49:19.622Z,84.90
2024-01-28T13:51:48.379Z,85.20
2024-01-28T13:54:16.142Z,85.90
2024-01-28T13:56:46.822Z,84.30
2024-01-28T13:59:17.946Z,84.70
2024-01-28T14:01:45.360Z,84.50
2024-01-28T14:04:19.072Z,84.70
2024-01-28T14:09:45.112Z,85.20
2024-01-28T14:12:18.925Z,85.90
2024-01-28T14:14:49.389Z,85.30
2024-01-28T14:17:20.919Z,84.40
2024-01-28T14:19:50.645Z,84.30
2024-01-28T14:22:27.037Z,85.10
2024-01-28T14:24:57.884Z,85.00
2024-01-28T14:27:30.890Z,83.80
2024-01-28T14:29:59.133Z,84.30
2024-01-28T14:32:31.170Z,84.40
2024-01-28T14:35:01.787Z,84.00
2024-01-28T14:37:31.346Z,84.00
2024-01-28T14:40:07.369Z,83.30
2024-01-28T14:42:36.454Z,83.10
2024-01-28T14:45:12.516Z,83.90
2024-01-28T14:47:43.730Z,84.70
2024-01-28T14:50:14.182Z,85.30
2024-01-28T14:52:50.032Z,85.60
2024-01-28T14:55:21.516Z,86.00
2024-01-28T14:57:49.007Z,85.30
2024-01-28T15:00:20.388Z,84.90
2024-01-28T15:02:50.136Z,85.10
2024-01-28T15:05:21.227Z,85.60
2024-01-28T15:07:48.764Z,85.80
2024-01-28T15:10:22.444Z,85.60
2024-01-28T15:12:54.063Z,86.00
2024-01-28T15:15:25.736Z,85.80
2024-01-28T15:17:55.727Z,86.00
2024-01-28T15:20:27.108Z,86.30
2024-01-28T15:22:55.584Z,86.20
2024-01-28T15:25:33.292Z,86.30
2024-01-28T15:28:15.300Z,86.00
2024-01-28T15:30:50.847Z,86.10
2024-01-28T15:33:29.799Z,86.60
2024-01-28T15:35:59.313Z,86.60
2024-01-28T15:38:28.664Z,86.70
2024-01-28T15:41:04.260Z,86.40
2024-01-28T15:43:31.731Z,86.80
2024-01-28T15:46:06.054Z,87.30
2024-01-28T15:48:43.750Z,87.50
2024-01-28T15:51:20.626Z,87.60
2024-01-28T15:53:48.594Z,87.90
2024-01-28T15:56:21.652Z,88.00
2024-01-28T15:58:51.782Z,88.40
2024-01-28T16:01:30.485Z,88.70
2024-01-28T16:04:10.942Z,88.90
2024-01-28T16:06:38.637Z,89.10
2024-01-28T16:09:17.359Z,89.20
2024-01-28T16:11:47.276Z,89.30
2024-01-28T16:14:17.840Z,89.70
2024-01-28T16:16:45.130Z,90.20
2024-01-28T16:19:23.755Z,90.00
2024-01-28T16:21:51.737Z,90.30
2024-01-28T16:24:21.594Z,90.30
2024-01-28T16:26:52.671Z,90.10
2024-01-28T16:29:19.821Z,90.10
2024-01-28T16:31:50.081Z,90.10
2024-01-28T16:34:20.359Z,90.10
2024-01-28T16:36:48.793Z,90.10
2024-01-28T16:39:19.068Z,90.10
2024-01-28T16:41:48.660Z,90.00
2024-01-28T16:44:17.653Z,90.10
2024-01-28T16:46:45.891Z,90.10
2024-01-28T16:49:14.455Z,90.00
2024-01-28T16:51:44.396Z,90.10
2024-01-28T16:54:12.957Z,90.20
2024-01-28T16:56:41.754Z,90.40
2024-01-28T16:59:13.534Z,90.30
2024-01-28T17:01:42.197Z,90.50
2024-01-28T17:04:19.158Z,90.60
2024-01-28T17:06:49.342Z,90.80
2024-01-28T17:09:19.546Z,90.80
2024-01-28T17:11:57.100Z,90.70
2024-01-28T17:14:25.738Z,90.80
2024-01-28T17:16:56.220Z,90.80
2024-01-28T17:19:27.976Z,90.80
2024-01-28T17:22:02.368Z,90.70
2024-01-28T17:24:45.856Z,90.70
2024-01-28T17:27:13.672Z,90.90
2024-01-28T17:29:44.819Z,90.90
2024-01-28T17:32:20.027Z,90.90
2024-01-28T17:34:52.614Z,91.10
2024-01-28T17:37:23.747Z,91.20
2024-01-28T17:39:58.340Z,91.20
2024-01-28T17:42:43.491Z,91.00
2024-01-28T17:45:19.894Z,91.10
2024-01-28T17:47:53.075Z,91.40
2024-01-28T17:50:33.976Z,91.40
2024-01-28T17:53:11.824Z,91.40
2024-01-28T17:55:43.828Z,91.40
2024-01-28T17:58:35.322Z,91.60
2024-01-28T18:01:17.510Z,91.50
2024-01-28T18:03:47.701Z,91.40
2024-01-28T18:06:24.790Z,91.20
2024-01-28T18:08:54.356Z,91.20
2024-01-28T18:11:26.994Z,91.10
2024-01-28T18:13:54.966Z,90.90
2024-01-28T18:16:27.733Z,90.80
2024-01-28T18:18:58.196Z,90.80
2024-01-28T18:21:38.813Z,90.90
2024-01-28T18:24:08.570Z,90.80
2024-01-28T18:26:37.591Z,90.90
2024-01-28T18:29:08.934Z,91.30
2024-01-28T18:31:40.167Z,91.60
2024-01-28T18:34:11.185Z,91.80
2024-01-28T18:36:41.466Z,91.70
2024-01-28T18:39:16.805Z,91.90
2024-01-28T18:41:47.949Z,92.00
2024-01-28T18:44:25.470Z,91.90
2024-01-28T18:46:59.662Z,91.90
2024-01-28T18:49:39.100Z,92.20
2024-01-28T18:52:30.542Z,92.30
2024-01-28T18:55:05.294Z,92.30
2024-01-28T18:57:56.896Z,92.40
2024-01-28T19:00:27.550Z,92.40
2024-01-28T19:03:07.706Z,92.60
2024-01-28T19:05:43.537Z,92.70
2024-01-28T19:08:11.830Z,92.20
2024-01-28T19:10:40.258Z,92.30
2024-01-28T19:13:12.544Z,92.10
2024-01-28T19:15:47.147Z,91.60
2024-01-28T19:18:19.934Z,91.50
2024-01-28T19:20:52.616Z,91.40
2024-01-28T19:23:26.336Z,91.20
2024-01-28T19:25:57.900Z,91.40
2024-01-28T19:28:32.677Z,91.40
2024-01-28T19:31:09.297Z,91.70
2024-01-28T19:33:40.899Z,91.80
2024-01-28T19:36:10.162Z,92.10
2024-01-28T19:38:41.424Z,92.20
2024-01-28T19:41:13.593Z,92.40
2024-01-28T19:43:49.690Z,92.10
2024-01-28T19:46:23.705Z,91.90
2024-01-28T19:48:51.125Z,92.00
2024-01-28T19:51:20.390Z,92.40
2024-01-28T19:53:48.824Z,92.40
2024-01-28T19:56:21.524Z,92.20
2024-01-28T19:58:51.809Z,92.20
2024-01-28T20:01:20.799Z,92.00
2024-01-28T20:03:48.605Z,92.00
2024-01-28T20:06:23.396Z,92.00
2024-01-28T20:09:01.200Z,91.80
2024-01-28T20:11:29.789Z,91.80
2024-01-28T20:13:58.291Z,91.90
2024-01-28T20:16:26.882Z,91.80
2024-01-28T20:18:56.015Z,91.80
2024-01-28T20:21:27.101Z,91.80
2024-01-28T20:23:56.985Z,91.70
2024-01-28T20:26:26.948Z,91.80
2024-01-28T20:28:57.027Z,91.80
2024-01-28T20:31:28.045Z,91.80
2024-01-28T20:33:57.797Z,92.10
2024-01-28T20:36:27.108Z,91.80
2024-01-28T20:38:59.822Z,91.90
2024-01-28T20:41:29.422Z,92.10
2024-01-28T20:44:06.377Z,92.40
2024-01-28T20:46:37.124Z,92.50
2024-01-28T20:49:08.204Z,93.30
2024-01-28T20:51:38.450Z,93.40
2024-01-28T20:54:12.411Z,93.50
2024-01-28T20:56:43.658Z,93.40
2024-01-28T20:59:11.357Z,92.80
2024-01-28T21:01:39.910Z,93.10
2024-01-28T21:04:07.217Z,93.10
2024-01-28T21:06:38.170Z,93.30
2024-01-28T21:09:07.462Z,93.90
2024-01-28T21:11:34.884Z,94.80
2024-01-28T21:14:05.415Z,95.30
2024-01-28T21:16:32.643Z,95.50
2024-01-28T21:19:05.207Z,95.60
2024-01-28T21:21:35.262Z,96.30
2024-01-28T21:24:06.322Z,96.10
2024-01-28T21:26:35.085Z,96.40
2024-01-28T21:29:07.075Z,96.80
2024-01-28T21:31:37.941Z,96.90
2024-01-28T21:34:07.711Z,97.10
2024-01-28T21:36:46.578Z,96.10
2024-01-28T21:39:18.699Z,95.70
2024-01-28T21:41:49.093Z,95.50
2024-01-28T21:44:20.919Z,95.50
2024-01-28T21:46:51.805Z,95.60
2024-01-28T21:49:20.532Z,95.80
2024-01-28T21:51:48.977Z,96.30
2024-01-28T21:54:16.892Z,96.70
2024-01-28T21:56:50.912Z,96.30
2024-01-28T21:59:18.338Z,96.20
2024-01-28T22:01:48.684Z,96.40
2024-01-28T22:04:18.544Z,96.80
2024-01-28T22:06:50.820Z,97.20
2024-01-28T22:09:20.558Z,97.40
2024-01-28T22:11:49.072Z,97.40
2024-01-28T22:14:19.057Z,97.90
2024-01-28T22:16:47.739Z,97.80
2024-01-28T22:19:19.635Z,97.30
2024-01-28T22:21:48.286Z,97.80
2024-01-28T22:24:18.803Z,97.80
2024-01-28T22:26:51.741Z,98.00
2024-01-28T22:29:21.420Z,97.60
2024-01-28T22:31:51.400Z,97.80
2024-01-28T22:34:27.974Z,98.00
2024-01-28T22:36:56.702Z,98.20
2024-01-28T22:39:35.472Z,98.30
2024-01-28T22:42:04.878Z,98.40
2024-01-28T22:44:38.572Z,98.40
2024-01-28T22:47:09.963Z,98.30
2024-01-28T22:49:37.464Z,98.20
2024-01-28T22:52:05.363Z,97.90
2024-01-28T22:54:38.369Z,98.40
2024-01-28T22:57:07.346Z,98.60
2024-01-28T22:59:39.703Z,98.70
2024-01-28T23:02:07.958Z,98.80
2024-01-28T23:04:39.218Z,98.60
2024-01-28T23:07:12.822Z,98.50
2024-01-28T23:09:41.965Z,98.10
2024-01-28T23:12:10.717Z,98.10
2024-01-28T23:14:47.456Z,98.10
2024-01-28T23:17:18.566Z,98.20
2024-01-28T23:19:49.036Z,98.20
2024-01-28T23:22:23.200Z,98.30
2024-01-28T23:24:56.214Z,98.40
2024-01-28T23:27:25.370Z,98.60
2024-01-28T23:29:55.854Z,98.70
2024-01-28T23:32:32.617Z,99.00
2024-01-28T23:35:01.792Z,99.30
2024-01-28T23:37:32.071Z,99.20
2024-01-28T23:40:01.027Z,98.80
2024-01-28T23:42:31.323Z,98.70
2024-01-28T23:45:01.907Z,98.60
2024-01-28T23:47:32.552Z,98.60
2024-01-28T23:50:01.422Z,98.50
2024-01-28T23:52:35.011Z,98.40
2024-01-28T23:55:07.998Z,98.40
2024-01-28T23:57:38.618Z,98.20
